Time;durP1;ratioP1;P1;durP2;ratioP2;P2;SDS_P1;SDS_P2;PMS_P1;PMS_P2;Temp;Humidity;BMP_temperature;BMP_pressure;BME280_temperature;BME280_humidity;BME280_pressure;Samples;Min_cycle;Max_cycle;Signal;HPM_P1;HPM_P2
2022/10/30 00:01:25;;;;;;;;;;;;;;;;;;5078330;28;19939;-83
2022/10/30 00:03:51;;;;;;;;;;;;;;;;;;5079515;28;20007;-86
2022/10/30 00:06:16;;;;;;;;;;;;;;;;;;5083046;28;19971;-85
2022/10/30 00:08:42;;;;;;;;;;;;;;;;;;5079359;28;19974;-84
2022/10/30 00:11:08;;;;;;;;;;;;;;;;;;5076321;28;19916;-87
2022/10/30 00:13:34;;;;;;;;;;;;;;;;;;5077613;28;19956;-87
2022/10/30 00:16:02;;;;;;;;;;;;;;;;;;5079252;28;19924;-87
2022/10/30 00:18:27;;;;;;;;;;;;;;;;;;5086373;28;20014;-88
2022/10/30 00:20:52;;;;;;;;;;;;;;;;;;5076256;28;19962;-86
2022/10/30 00:23:19;;;;;;;;;;;;;;;;;;5077472;28;20395;-88
2022/10/30 00:25:44;;;;;;;;;;;;;;;;;;5077432;28;20286;-88
2022/10/30 00:28:10;;;;;;;;;;;;;;;;;;5077318;28;19921;-86
2022/10/30 00:30:35;;;;;;;;;;;;;;;;;;5083709;28;19920;-84
2022/10/30 00:33:00;;;;;;;;;;;;;;;;;;5123571;27;19921;-88
2022/10/30 00:35:26;;;;;;;;;;;;;;;;;;5081860;28;19916;-83
2022/10/30 00:37:51;;;;;;;;;;;;;;;;;;5081891;28;19923;-83
2022/10/30 00:40:17;;;;;;;;;;;;;;;;;;5114137;28;19916;-85
2022/10/30 00:42:43;;;;;;;;;;;;;;;;;;5079518;28;19916;-85
2022/10/30 00:45:12;;;;;;;;;;;;;;;;;;5109735;28;19923;-84
2022/10/30 00:47:40;;;;;;;;;;;;;;;;;;5075707;28;19917;-83
2022/10/30 00:50:11;;;;;;;;;;;;;;;;;;5076892;28;19991;-87
2022/10/30 00:52:43;;;;;;;;;;;;;;;;;;5075706;28;19916;-87
2022/10/30 00:55:12;;;;;;;;;;;;;;;;;;5076875;28;20011;-88
2022/10/30 00:57:38;;;;;;;;;;;;;;;;;;5076847;28;19921;-87
2022/10/30 01:00:05;;;;;;;;;;;;;;;;;;5076752;28;19970;-88
2022/10/30 01:02:30;;;;;;;;;;;;;;;;;;5076832;28;19967;-86
2022/10/30 01:04:56;;;;;;;;;;;;;;;;;;5076739;28;19916;-88
2022/10/30 01:07:21;;;;;;;;;;;;;;;;;;5077004;28;19966;-86
2022/10/30 01:09:47;;;;;;;;;;;;;;;;;;5096923;28;20405;-88
2022/10/30 01:12:13;;;;;;;;;;;;;;;;;;5094861;28;20003;-86
2022/10/30 01:14:40;;;;;;;;;;;;;;;;;;5076291;28;19917;-88
2022/10/30 01:17:13;;;;;;;;;;;;;;;;;;5075335;28;20019;-85
2022/10/30 01:19:43;;;;;;;;;;;;;;;;;;5076354;28;19916;-84
2022/10/30 01:22:44;;;;;;;;;;;;;;;;;;5076662;28;19916;-88
2022/10/30 01:25:27;;;;;;;;;;;;;;;;;;5074159;28;19917;-88
2022/10/30 01:28:12;;;;;;;;;;;;;;;;;;5094381;28;19916;-88
2022/10/30 01:30:52;;;;;;;;;;;;;;;;;;5078620;28;19916;-87
2022/10/30 01:33:36;;;;;;;;;;;;;;;;;;5074781;28;19921;-88
2022/10/30 01:36:21;;;;;;;;;;;;;;;;;;5074816;28;19970;-89
2022/10/30 01:38:50;;;;;;;;;;;;;;;;;;5074358;28;19917;-86
2022/10/30 01:41:16;;;;;;;;;;;;;;;;;;5076013;28;20356;-85
2022/10/30 01:43:44;;;;;;;;;;;;;;;;;;5075985;28;19927;-85
2022/10/30 01:46:27;;;;;;;;;;;;;;;;;;5094647;28;19978;-85
2022/10/30 01:49:11;;;;;;;;;;;;;;;;;;5096179;28;19923;-86
2022/10/30 01:52:00;;;;;;;;;;;;;;;;;;5095922;28;19923;-84
2022/10/30 01:54:43;;;;;;;;;;;;;;;;;;5094759;28;20272;-82
2022/10/30 01:57:12;;;;;;;;;;;;;;;;;;5096051;28;19955;-86
2022/10/30 01:59:49;;;;;;;;;;;;;;;;;;5096120;28;19916;-87
2022/10/30 02:02:14;;;;;;;;;;;;;;;;;;5096025;28;20323;-86
2022/10/30 02:04:40;;;;;;;;;;;;;;;;;;5095819;28;19948;-88
2022/10/30 02:07:06;;;;;;;;;;;;;;;;;;5087446;28;20298;-89
2022/10/30 02:09:31;;;;;;;;;;;;;;;;;;5075487;28;19917;-88
2022/10/30 02:11:57;;;;;;;;;;;;;;;;;;5075499;28;20328;-88
2022/10/30 02:14:25;;;;;;;;;;;;;;;;;;5075363;28;19924;-87
2022/10/30 02:16:53;;;;;;;;;;;;;;;;;;5074178;28;19923;-88
2022/10/30 02:19:18;;;;;;;;;;;;;;;;;;5075480;28;19998;-87
2022/10/30 02:21:44;;;;;;;;;;;;;;;;;;5073888;28;19938;-86
2022/10/30 02:24:09;;;;;;;;;;;;;;;;;;5075140;28;19917;-87
2022/10/30 02:26:35;;;;;;;;;;;;;;;;;;5074625;28;19923;-89
2022/10/30 02:29:00;;;;;;;;;;;;;;;;;;5077184;28;19923;-88
2022/10/30 02:31:26;;;;;;;;;;;;;;;;;;5092010;28;20012;-87
2022/10/30 02:33:51;;;;;;;;;;;;;;;;;;5077304;28;19916;-86
2022/10/30 02:36:17;;;;;;;;;;;;;;;;;;5075078;28;20261;-83
2022/10/30 02:38:43;;;;;;;;;;;;;;;;;;5074877;28;20391;-86
2022/10/30 02:41:09;;;;;;;;;;;;;;;;;;5075019;28;19969;-88
2022/10/30 02:43:34;;;;;;;;;;;;;;;;;;5074824;28;19924;-87
2022/10/30 02:45:59;;;;;;;;;;;;;;;;;;5074802;28;19920;-85
2022/10/30 02:48:25;;;;;;;;;;;;;;;;;;5074742;28;20284;-89
2022/10/30 02:50:50;;;;;;;;;;;;;;;;;;5073455;28;19917;-87
2022/10/30 02:53:16;;;;;;;;;;;;;;;;;;5074584;28;19917;-88
2022/10/30 02:55:41;;;;;;;;;;;;;;;;;;5074679;28;19921;-85
2022/10/30 02:58:07;;;;;;;;;;;;;;;;;;5073237;28;19916;-86
2022/10/30 03:00:32;;;;;;;;;;;;;;;;;;5074634;28;20359;-87
2022/10/30 03:02:58;;;;;;;;;;;;;;;;;;5074427;28;19928;-86
2022/10/30 03:05:23;;;;;;;;;;;;;;;;;;5074375;28;20011;-87
2022/10/30 03:07:50;;;;;;;;;;;;;;;;;;5074486;28;19969;-88
2022/10/30 03:10:16;;;;;;;;;;;;;;;;;;5074424;28;20007;-85
2022/10/30 03:12:41;;;;;;;;;;;;;;;;;;5074285;28;20358;-86
2022/10/30 03:15:07;;;;;;;;;;;;;;;;;;5074393;28;20268;-88
2022/10/30 03:17:32;;;;;;;;;;;;;;;;;;5074328;28;19917;-86
2022/10/30 03:19:58;;;;;;;;;;;;;;;;;;5074205;28;19916;-84
2022/10/30 03:22:23;;;;;;;;;;;;;;;;;;5074188;28;20360;-87
2022/10/30 03:24:48;;;;;;;;;;;;;;;;;;5074526;28;19916;-85
2022/10/30 03:27:14;;;;;;;;;;;;;;;;;;5074195;28;19920;-88
2022/10/30 03:29:39;;;;;;;;;;;;;;;;;;5074533;28;20019;-89
2022/10/30 03:32:07;;;;;;;;;;;;;;;;;;5074062;28;19921;-88
2022/10/30 03:34:33;;;;;;;;;;;;;;;;;;5074197;28;20011;-87
2022/10/30 03:36:58;;;;;;;;;;;;;;;;;;5073447;28;19959;-89
2022/10/30 03:39:24;;;;;;;;;;;;;;;;;;5073622;28;19960;-88
2022/10/30 03:41:49;;;;;;;;;;;;;;;;;;5072737;28;20264;-89
2022/10/30 03:44:14;;;;;;;;;;;;;;;;;;5073894;28;19916;-87
2022/10/30 03:46:40;;;;;;;;;;;;;;;;;;5073929;28;19921;-88
2022/10/30 03:49:05;;;;;;;;;;;;;;;;;;5072589;28;19924;-88
2022/10/30 03:51:31;;;;;;;;;;;;;;;;;;5072723;28;20011;-89
2022/10/30 03:53:56;;;;;;;;;;;;;;;;;;5086832;28;19964;-84
2022/10/30 03:56:21;;;;;;;;;;;;;;;;;;5110328;28;19927;-85
2022/10/30 03:58:47;;;;;;;;;;;;;;;;;;5111562;28;19908;-85
2022/10/30 04:01:12;;;;;;;;;;;;;;;;;;5097037;28;19965;-83
2022/10/30 04:03:38;;;;;;;;;;;;;;;;;;5089728;28;20426;-86
2022/10/30 04:06:03;;;;;;;;;;;;;;;;;;5093478;28;19916;-89
2022/10/30 04:08:28;;;;;;;;;;;;;;;;;;5092783;28;19916;-84
2022/10/30 04:10:54;;;;;;;;;;;;;;;;;;5093893;28;20386;-87
2022/10/30 04:13:19;;;;;;;;;;;;;;;;;;5093970;28;19965;-85
2022/10/30 04:15:46;;;;;;;;;;;;;;;;;;5092700;28;19916;-86
2022/10/30 04:18:12;;;;;;;;;;;;;;;;;;5092534;28;19969;-88
2022/10/30 04:20:38;;;;;;;;;;;;;;;;;;5093644;28;19923;-87
2022/10/30 04:23:04;;;;;;;;;;;;;;;;;;5092589;28;19916;-87
2022/10/30 04:25:30;;;;;;;;;;;;;;;;;;5092409;28;19920;-87
2022/10/30 04:27:56;;;;;;;;;;;;;;;;;;5093575;28;20292;-85
2022/10/30 04:30:23;;;;;;;;;;;;;;;;;;5093650;28;19920;-88
2022/10/30 04:32:50;;;;;;;;;;;;;;;;;;5093452;28;20278;-86
2022/10/30 04:35:17;;;;;;;;;;;;;;;;;;5093764;28;19916;-87
2022/10/30 04:37:42;;;;;;;;;;;;;;;;;;5093796;28;20002;-86
2022/10/30 04:40:08;;;;;;;;;;;;;;;;;;5093648;28;19993;-86
2022/10/30 04:42:34;;;;;;;;;;;;;;;;;;5093775;28;19998;-88
2022/10/30 04:45:01;;;;;;;;;;;;;;;;;;5095666;28;20367;-82
2022/10/30 04:47:27;;;;;;;;;;;;;;;;;;5097080;28;20256;-86
2022/10/30 04:49:52;;;;;;;;;;;;;;;;;;5095847;28;19923;-85
2022/10/30 04:52:18;;;;;;;;;;;;;;;;;;5097343;28;20359;-89
2022/10/30 04:54:43;;;;;;;;;;;;;;;;;;5097290;28;19916;-85
2022/10/30 04:57:09;;;;;;;;;;;;;;;;;;5097212;28;19920;-81
2022/10/30 04:59:34;;;;;;;;;;;;;;;;;;5097144;28;19917;-82
2022/10/30 05:02:00;;;;;;;;;;;;;;;;;;5101383;28;19927;-85
2022/10/30 05:04:25;;;;;;;;;;;;;;;;;;5099703;28;19916;-82
2022/10/30 05:06:51;;;;;;;;;;;;;;;;;;5133681;27;19917;-82
2022/10/30 05:09:16;;;;;;;;;;;;;;;;;;5102209;28;19922;-81
2022/10/30 05:11:41;;;;;;;;;;;;;;;;;;5100043;28;19920;-80
2022/10/30 05:14:07;;;;;;;;;;;;;;;;;;5101309;28;20389;-83
2022/10/30 05:16:32;;;;;;;;;;;;;;;;;;5101010;28;19920;-83
2022/10/30 05:18:58;;;;;;;;;;;;;;;;;;5101678;28;20268;-83
2022/10/30 05:21:23;;;;;;;;;;;;;;;;;;5099057;28;19920;-81
2022/10/30 05:23:49;;;;;;;;;;;;;;;;;;5102361;28;19957;-81
2022/10/30 05:26:14;;;;;;;;;;;;;;;;;;5102210;28;19916;-81
2022/10/30 05:28:41;;;;;;;;;;;;;;;;;;5102079;28;19999;-81
2022/10/30 05:31:06;;;;;;;;;;;;;;;;;;5097422;28;19916;-82
2022/10/30 05:33:32;;;;;;;;;;;;;;;;;;5101168;28;19923;-85
2022/10/30 05:35:57;;;;;;;;;;;;;;;;;;5101532;28;19979;-85
2022/10/30 05:38:23;;;;;;;;;;;;;;;;;;5097520;28;19916;-86
2022/10/30 05:40:49;;;;;;;;;;;;;;;;;;5097297;28;20364;-87
2022/10/30 05:43:14;;;;;;;;;;;;;;;;;;5097897;28;20015;-85
2022/10/30 05:45:39;;;;;;;;;;;;;;;;;;5096242;28;19974;-86
2022/10/30 05:48:05;;;;;;;;;;;;;;;;;;5096321;28;20379;-86
2022/10/30 05:50:31;;;;;;;;;;;;;;;;;;5101574;28;19920;-85
2022/10/30 05:52:57;;;;;;;;;;;;;;;;;;5099923;28;19919;-88
2022/10/30 05:55:23;;;;;;;;;;;;;;;;;;5097277;28;19916;-87
2022/10/30 05:57:48;;;;;;;;;;;;;;;;;;5098062;28;19912;-86
2022/10/30 06:00:14;;;;;;;;;;;;;;;;;;5100367;28;19916;-85
2022/10/30 06:02:39;;;;;;;;;;;;;;;;;;5099035;28;19916;-85
2022/10/30 06:05:05;;;;;;;;;;;;;;;;;;5095938;28;20378;-88
2022/10/30 06:07:30;;;;;;;;;;;;;;;;;;5096651;28;19929;-85
2022/10/30 06:09:56;;;;;;;;;;;;;;;;;;5099923;28;20385;-82
2022/10/30 06:12:21;;;;;;;;;;;;;;;;;;5102747;28;19916;-84
2022/10/30 06:14:46;;;;;;;;;;;;;;;;;;5094949;28;19916;-83
2022/10/30 06:17:12;;;;;;;;;;;;;;;;;;5096595;28;19916;-85
2022/10/30 06:19:37;;;;;;;;;;;;;;;;;;5099459;28;19916;-84
2022/10/30 06:22:03;;;;;;;;;;;;;;;;;;5101409;28;19916;-81
2022/10/30 06:24:28;;;;;;;;;;;;;;;;;;5108746;28;20407;-82
2022/10/30 06:26:54;;;;;;;;;;;;;;;;;;5099479;28;20390;-84
2022/10/30 06:29:19;;;;;;;;;;;;;;;;;;5096950;28;19955;-87
2022/10/30 06:31:44;;;;;;;;;;;;;;;;;;5101615;28;19920;-82
2022/10/30 06:34:10;;;;;;;;;;;;;;;;;;5095181;28;20389;-86
2022/10/30 06:36:35;;;;;;;;;;;;;;;;;;5094825;28;19912;-83
2022/10/30 06:39:01;;;;;;;;;;;;;;;;;;5094323;28;19920;-87
2022/10/30 06:41:26;;;;;;;;;;;;;;;;;;5094600;28;19916;-86
2022/10/30 06:43:52;;;;;;;;;;;;;;;;;;5094542;28;20401;-85
2022/10/30 06:46:17;;;;;;;;;;;;;;;;;;5094575;28;19916;-85
2022/10/30 06:48:43;;;;;;;;;;;;;;;;;;5094569;28;19916;-88
2022/10/30 06:51:08;;;;;;;;;;;;;;;;;;5100501;28;20287;-85
2022/10/30 06:53:33;;;;;;;;;;;;;;;;;;5105134;28;19923;-84
2022/10/30 06:56:00;;;;;;;;;;;;;;;;;;5104726;28;19916;-83
2022/10/30 06:58:26;;;;;;;;;;;;;;;;;;5110894;28;19945;-85
2022/10/30 07:00:51;;;;;;;;;;;;;;;;;;5100957;28;19948;-88
2022/10/30 07:03:18;;;;;;;;;;;;;;;;;;5106078;28;19926;-86
2022/10/30 07:05:44;;;;;;;;;;;;;;;;;;5113630;28;19962;-86
2022/10/30 07:08:09;;;;;;;;;;;;;;;;;;5113572;28;19955;-85
2022/10/30 07:10:35;;;;;;;;;;;;;;;;;;5108650;28;19916;-86
2022/10/30 07:13:00;;;;;;;;;;;;;;;;;;5108308;28;20011;-85
2022/10/30 07:15:26;;;;;;;;;;;;;;;;;;5105729;28;19927;-83
2022/10/30 07:17:55;;;;;;;;;;;;;;;;;;5074249;28;20011;-86
2022/10/30 07:20:21;;;;;;;;;;;;;;;;;;5074103;28;20393;-83
2022/10/30 07:22:46;;;;;;;;;;;;;;;;;;5074028;28;19921;-85
2022/10/30 07:25:11;;;;;;;;;;;;;;;;;;5080938;28;19998;-86
2022/10/30 07:27:41;;;;;;;;;;;;;;;;;;5095515;28;19919;-83
2022/10/30 07:30:07;;;;;;;;;;;;;;;;;;5094192;28;20385;-84
2022/10/30 07:32:32;;;;;;;;;;;;;;;;;;5093944;28;19928;-84
2022/10/30 07:34:57;;;;;;;;;;;;;;;;;;5100971;28;19973;-85
2022/10/30 07:37:23;;;;;;;;;;;;;;;;;;5099997;28;19970;-84
2022/10/30 07:39:48;;;;;;;;;;;;;;;;;;5103590;28;19924;-84
2022/10/30 07:42:13;;;;;;;;;;;;;;;;;;5104955;28;19923;-85
2022/10/30 07:44:39;;;;;;;;;;;;;;;;;;5097607;28;19920;-85
2022/10/30 07:47:04;;;;;;;;;;;;;;;;;;5091638;28;19942;-85
2022/10/30 07:49:30;;;;;;;;;;;;;;;;;;5094185;28;19924;-87
2022/10/30 07:51:55;;;;;;;;;;;;;;;;;;5093819;28;19936;-84
2022/10/30 07:54:20;;;;;;;;;;;;;;;;;;5094210;28;20430;-85
2022/10/30 07:56:46;;;;;;;;;;;;;;;;;;5093456;28;20015;-86
2022/10/30 07:59:11;;;;;;;;;;;;;;;;;;5083026;28;19934;-87
2022/10/30 08:01:37;;;;;;;;;;;;;;;;;;5092136;28;19927;-87
2022/10/30 08:04:02;;;;;;;;;;;;;;;;;;5087786;28;19942;-85
2022/10/30 08:06:27;;;;;;;;;;;;;;;;;;5090742;28;20025;-87
2022/10/30 08:08:53;;;;;;;;;;;;;;;;;;5081289;28;19920;-87
2022/10/30 08:11:18;;;;;;;;;;;;;;;;;;5086018;28;21576;-87
2022/10/30 08:13:44;;;;;;;;;;;;;;;;;;5098711;28;20383;-85
2022/10/30 08:16:09;;;;;;;;;;;;;;;;;;5099280;28;20506;-84
2022/10/30 08:18:35;;;;;;;;;;;;;;;;;;5083673;28;19969;-86
2022/10/30 08:21:00;;;;;;;;;;;;;;;;;;5077173;28;19928;-88
2022/10/30 08:23:25;;;;;;;;;;;;;;;;;;5077311;28;20379;-84
2022/10/30 08:25:51;;;;;;;;;;;;;;;;;;5083405;28;19946;-84
2022/10/30 08:28:16;;;;;;;;;;;;;;;;;;5081257;28;20661;-85
2022/10/30 08:30:42;;;;;;;;;;;;;;;;;;5081755;28;20011;-84
2022/10/30 08:33:15;;;;;;;;;;;;;;;;;;5082380;28;19978;-84
2022/10/30 08:35:50;;;;;;;;;;;;;;;;;;5082559;28;19924;-85
2022/10/30 08:38:16;;;;;;;;;;;;;;;;;;5082703;28;20429;-84
2022/10/30 08:40:41;;;;;;;;;;;;;;;;;;5083298;28;19931;-85
2022/10/30 08:43:07;;;;;;;;;;;;;;;;;;5081754;28;19971;-85
2022/10/30 08:45:33;;;;;;;;;;;;;;;;;;5084356;28;19927;-86
2022/10/30 08:47:59;;;;;;;;;;;;;;;;;;5084379;28;19924;-86
2022/10/30 08:50:32;;;;;;;;;;;;;;;;;;5090172;28;19924;-83
2022/10/30 08:53:02;;;;;;;;;;;;;;;;;;5088300;28;19922;-85
2022/10/30 08:55:28;;;;;;;;;;;;;;;;;;5087663;28;19921;-84
2022/10/30 08:57:53;;;;;;;;;;;;;;;;;;5079114;28;19921;-85
2022/10/30 09:00:19;;;;;;;;;;;;;;;;;;5077107;28;19923;-85
2022/10/30 09:02:44;;;;;;;;;;;;;;;;;;5092293;28;19913;-85
2022/10/30 09:05:09;;;;;;;;;;;;;;;;;;5077169;28;19923;-86
2022/10/30 09:07:35;;;;;;;;;;;;;;;;;;5097758;28;19921;-85
2022/10/30 09:10:01;;;;;;;;;;;;;;;;;;5083158;28;19925;-86
2022/10/30 09:12:26;;;;;;;;;;;;;;;;;;5080101;28;19966;-87
2022/10/30 09:14:52;;;;;;;;;;;;;;;;;;5082340;28;19924;-86
2022/10/30 09:17:17;;;;;;;;;;;;;;;;;;5082418;28;19920;-84
2022/10/30 09:19:43;;;;;;;;;;;;;;;;;;5087987;28;19943;-83
2022/10/30 09:22:08;;;;;;;;;;;;;;;;;;5090325;28;19990;-84
2022/10/30 09:24:33;;;;;;;;;;;;;;;;;;5094819;28;19920;-83
2022/10/30 09:26:59;;;;;;;;;;;;;;;;;;5091327;28;19984;-84
2022/10/30 09:29:29;;;;;;;;;;;;;;;;;;5091638;28;19976;-87
2022/10/30 09:31:58;;;;;;;;;;;;;;;;;;5090859;28;19927;-85
2022/10/30 09:34:26;;;;;;;;;;;;;;;;;;5089461;28;19952;-85
2022/10/30 09:36:52;;;;;;;;;;;;;;;;;;5092640;28;19932;-85
2022/10/30 09:39:17;;;;;;;;;;;;;;;;;;5090911;28;19951;-87
2022/10/30 09:41:43;;;;;;;;;;;;;;;;;;5089626;28;19927;-88
2022/10/30 09:44:16;;;;;;;;;;;;;;;;;;5093075;28;19926;-89
2022/10/30 09:46:48;;;;;;;;;;;;;;;;;;5090666;28;19967;-84
2022/10/30 09:49:17;;;;;;;;;;;;;;;;;;5094855;28;20532;-86
2022/10/30 09:51:54;;;;;;;;;;;;;;;;;;5108296;27;19927;-85
2022/10/30 09:54:34;;;;;;;;;;;;;;;;;;5087562;28;19934;-85
2022/10/30 09:57:18;;;;;;;;;;;;;;;;;;5085395;28;20638;-85
2022/10/30 09:59:51;;;;;;;;;;;;;;;;;;5078866;28;19927;-83
2022/10/30 10:02:45;;;;;;;;;;;;;;;;;;5082322;28;19920;-84
2022/10/30 10:05:16;;;;;;;;;;;;;;;;;;5077158;28;19970;-84
2022/10/30 10:07:46;;;;;;;;;;;;;;;;;;5089845;28;19920;-86
2022/10/30 10:10:16;;;;;;;;;;;;;;;;;;5086592;28;19920;-85
2022/10/30 10:12:47;;;;;;;;;;;;;;;;;;5085422;28;19928;-84
2022/10/30 10:15:32;;;;;;;;;;;;;;;;;;5079076;28;20015;-84
2022/10/30 10:18:00;;;;;;;;;;;;;;;;;;5079146;28;20015;-86
2022/10/30 10:20:54;;;;;;;;;;;;;;;;;;5080838;28;19924;-86
2022/10/30 10:23:40;;;;;;;;;;;;;;;;;;5079664;28;20018;-87
2022/10/30 10:26:13;;;;;;;;;;;;;;;;;;5085019;28;19920;-86
2022/10/30 10:29:04;;;;;;;;;;;;;;;;;;5086914;28;19920;-87
2022/10/30 10:31:41;;;;;;;;;;;;;;;;;;5089367;28;19919;-88
2022/10/30 10:34:24;;;;;;;;;;;;;;;;;;5087279;28;19974;-85
2022/10/30 10:36:57;;;;;;;;;;;;;;;;;;5089422;28;19912;-86
2022/10/30 10:39:25;;;;;;;;;;;;;;;;;;5091312;28;19966;-86
2022/10/30 10:41:54;;;;;;;;;;;;;;;;;;5091232;28;19924;-86
2022/10/30 10:44:32;;;;;;;;;;;;;;;;;;5091753;28;19927;-87
2022/10/30 10:47:03;;;;;;;;;;;;;;;;;;5091010;28;19916;-88
2022/10/30 10:49:41;;;;;;;;;;;;;;;;;;5084504;28;20077;-87
2022/10/30 10:52:12;;;;;;;;;;;;;;;;;;5089458;28;19974;-84
2022/10/30 10:54:42;;;;;;;;;;;;;;;;;;5086201;28;19920;-87
2022/10/30 10:57:13;;;;;;;;;;;;;;;;;;5086778;28;20051;-86
2022/10/30 10:59:41;;;;;;;;;;;;;;;;;;5077746;28;19916;-85
2022/10/30 11:02:06;;;;;;;;;;;;;;;;;;5077892;28;19923;-86
2022/10/30 11:04:43;;;;;;;;;;;;;;;;;;5077297;28;20002;-84
2022/10/30 11:07:20;;;;;;;;;;;;;;;;;;5073404;28;20363;-84
2022/10/30 11:09:47;;;;;;;;;;;;;;;;;;5076454;28;19917;-84
2022/10/30 11:12:12;;;;;;;;;;;;;;;;;;5079659;28;19938;-87
2022/10/30 11:14:38;;;;;;;;;;;;;;;;;;5078463;28;19916;-85
2022/10/30 11:17:30;;;;;;;;;;;;;;;;;;5079384;28;20383;-87
2022/10/30 11:20:00;;;;;;;;;;;;;;;;;;5070183;28;19923;-86
2022/10/30 11:22:33;;;;;;;;;;;;;;;;;;5079636;28;19916;-86
2022/10/30 11:25:17;;;;;;;;;;;;;;;;;;5078438;28;20317;-85
2022/10/30 11:27:45;;;;;;;;;;;;;;;;;;5083834;28;20363;-88
2022/10/30 11:30:21;;;;;;;;;;;;;;;;;;5094072;28;20438;-87
2022/10/30 11:32:46;;;;;;;;;;;;;;;;;;5090641;28;19920;-86
2022/10/30 11:35:13;;;;;;;;;;;;;;;;;;5098267;28;19923;-86
2022/10/30 11:37:40;;;;;;;;;;;;;;;;;;5098531;28;19912;-87
2022/10/30 11:40:06;;;;;;;;;;;;;;;;;;5099257;28;19923;-85
2022/10/30 11:42:32;;;;;;;;;;;;;;;;;;5101450;28;19912;-85
2022/10/30 11:44:58;;;;;;;;;;;;;;;;;;5102703;28;19923;-86
2022/10/30 11:47:30;;;;;;;;;;;;;;;;;;5094299;28;19920;-85
2022/10/30 11:49:58;;;;;;;;;;;;;;;;;;5076771;28;19955;-86
2022/10/30 11:52:24;;;;;;;;;;;;;;;;;;5080226;28;19944;-86
2022/10/30 11:55:10;;;;;;;;;;;;;;;;;;5088851;28;19979;-84
2022/10/30 11:57:43;;;;;;;;;;;;;;;;;;5088718;28;19927;-86
2022/10/30 12:00:21;;;;;;;;;;;;;;;;;;5093589;28;19917;-86
2022/10/30 12:02:51;;;;;;;;;;;;;;;;;;5102796;28;19924;-88
2022/10/30 12:05:35;;;;;;;;;;;;;;;;;;5104468;28;20248;-86
2022/10/30 12:08:03;;;;;;;;;;;;;;;;;;5098427;28;19960;-88
2022/10/30 12:10:29;;;;;;;;;;;;;;;;;;5100288;28;19952;-86
2022/10/30 12:12:54;;;;;;;;;;;;;;;;;;5103940;28;19912;-87
2022/10/30 12:15:22;;;;;;;;;;;;;;;;;;5103504;28;19923;-85
2022/10/30 12:17:51;;;;;;;;;;;;;;;;;;5098091;28;20436;-87
2022/10/30 12:20:17;;;;;;;;;;;;;;;;;;5098199;28;19912;-85
2022/10/30 12:22:43;;;;;;;;;;;;;;;;;;5098146;28;19916;-86
2022/10/30 12:25:24;;;;;;;;;;;;;;;;;;5098962;28;19912;-84
2022/10/30 12:27:56;;;;;;;;;;;;;;;;;;5098357;28;19925;-86
2022/10/30 12:30:22;;;;;;;;;;;;;;;;;;5099546;28;19959;-87
2022/10/30 12:32:59;;;;;;;;;;;;;;;;;;5097733;28;19920;-87
2022/10/30 12:35:30;;;;;;;;;;;;;;;;;;5097655;28;19916;-85
2022/10/30 12:37:58;;;;;;;;;;;;;;;;;;5097753;28;20287;-87
2022/10/30 12:40:26;;;;;;;;;;;;;;;;;;5097620;28;19967;-87
2022/10/30 12:42:57;;;;;;;;;;;;;;;;;;5097670;28;20286;-88
2022/10/30 12:45:25;;;;;;;;;;;;;;;;;;5097447;28;19922;-87
2022/10/30 12:48:02;;;;;;;;;;;;;;;;;;5097438;28;20121;-87
2022/10/30 12:50:43;;;;;;;;;;;;;;;;;;5096266;28;19916;-86
2022/10/30 12:53:26;;;;;;;;;;;;;;;;;;5087273;28;19999;-85
2022/10/30 12:55:55;;;;;;;;;;;;;;;;;;5101762;28;19917;-86
2022/10/30 12:58:21;;;;;;;;;;;;;;;;;;5098338;28;20295;-86
2022/10/30 13:00:59;;;;;;;;;;;;;;;;;;5092391;28;19916;-86
2022/10/30 13:03:27;;;;;;;;;;;;;;;;;;5100555;28;19916;-87
2022/10/30 13:05:54;;;;;;;;;;;;;;;;;;5100049;28;20006;-88
2022/10/30 13:08:24;;;;;;;;;;;;;;;;;;5102266;28;20018;-86
2022/10/30 13:11:02;;;;;;;;;;;;;;;;;;5093579;28;20368;-86
2022/10/30 13:13:31;;;;;;;;;;;;;;;;;;5088806;28;19942;-87
2022/10/30 13:15:57;;;;;;;;;;;;;;;;;;5091421;28;19923;-85
2022/10/30 13:18:23;;;;;;;;;;;;;;;;;;5101119;28;19961;-86
2022/10/30 13:21:04;;;;;;;;;;;;;;;;;;5098729;28;19950;-86
2022/10/30 13:23:33;;;;;;;;;;;;;;;;;;5095984;28;20271;-89
2022/10/30 13:26:06;;;;;;;;;;;;;;;;;;5098563;28;19925;-86
2022/10/30 13:28:33;;;;;;;;;;;;;;;;;;5133558;27;19938;-87
2022/10/30 13:31:16;;;;;;;;;;;;;;;;;;5098500;28;19923;-88
2022/10/30 13:34:08;;;;;;;;;;;;;;;;;;5098321;28;20022;-86
2022/10/30 13:37:09;;;;;;;;;;;;;;;;;;5095648;28;19923;-87
2022/10/30 13:39:53;;;;;;;;;;;;;;;;;;5075612;28;19916;-87
2022/10/30 13:42:27;;;;;;;;;;;;;;;;;;5094544;28;20004;-86
2022/10/30 13:45:21;;;;;;;;;;;;;;;;;;5096460;28;19970;-87
2022/10/30 13:48:05;;;;;;;;;;;;;;;;;;5072641;28;19922;-85
2022/10/30 13:50:33;;;;;;;;;;;;;;;;;;5073199;28;19952;-86
2022/10/30 13:53:01;;;;;;;;;;;;;;;;;;5061283;28;19959;-86
2022/10/30 13:55:28;;;;;;;;;;;;;;;;;;5061433;28;19960;-87
2022/10/30 13:58:17;;;;;;;;;;;;;;;;;;5060289;28;19916;-86
2022/10/30 14:00:57;;;;;;;;;;;;;;;;;;5061762;28;19970;-87
2022/10/30 14:03:28;;;;;;;;;;;;;;;;;;5063944;28;20430;-86
2022/10/30 14:06:06;;;;;;;;;;;;;;;;;;5055088;28;19917;-87
2022/10/30 14:08:34;;;;;;;;;;;;;;;;;;5054898;28;20392;-85
2022/10/30 14:10:59;;;;;;;;;;;;;;;;;;5071471;28;20315;-87
2022/10/30 14:13:43;;;;;;;;;;;;;;;;;;5073446;28;20008;-86
2022/10/30 14:16:28;;;;;;;;;;;;;;;;;;5072914;28;19917;-86
2022/10/30 14:19:10;;;;;;;;;;;;;;;;;;5070497;28;19917;-87
2022/10/30 14:21:41;;;;;;;;;;;;;;;;;;5055745;28;19926;-86
2022/10/30 14:24:11;;;;;;;;;;;;;;;;;;5062806;28;20045;-85
2022/10/30 14:26:36;;;;;;;;;;;;;;;;;;5074908;28;19923;-89
2022/10/30 14:29:22;;;;;;;;;;;;;;;;;;5075114;28;19916;-87
2022/10/30 14:31:47;;;;;;;;;;;;;;;;;;5082251;28;19973;-86
2022/10/30 14:34:31;;;;;;;;;;;;;;;;;;5079049;28;20326;-87
2022/10/30 14:36:57;;;;;;;;;;;;;;;;;;5081202;28;19974;-87
2022/10/30 14:39:26;;;;;;;;;;;;;;;;;;5082967;28;19921;-88
2022/10/30 14:41:52;;;;;;;;;;;;;;;;;;5079845;28;19924;-86
2022/10/30 14:44:20;;;;;;;;;;;;;;;;;;5079603;28;19920;-87
2022/10/30 14:46:52;;;;;;;;;;;;;;;;;;5080305;28;19925;-87
2022/10/30 14:49:40;;;;;;;;;;;;;;;;;;5094792;27;19928;-87
2022/10/30 14:52:14;;;;;;;;;;;;;;;;;;5086269;28;19924;-87
2022/10/30 14:55:05;;;;;;;;;;;;;;;;;;5092180;28;20000;-87
2022/10/30 14:57:43;;;;;;;;;;;;;;;;;;5088858;28;20375;-89
2022/10/30 15:00:21;;;;;;;;;;;;;;;;;;5087917;28;19920;-87
2022/10/30 15:03:07;;;;;;;;;;;;;;;;;;5085457;28;19953;-89
2022/10/30 15:05:52;;;;;;;;;;;;;;;;;;5078663;28;20399;-85
2022/10/30 15:08:18;;;;;;;;;;;;;;;;;;5084931;28;20399;-87
2022/10/30 15:11:08;;;;;;;;;;;;;;;;;;5089208;28;20207;-88
2022/10/30 15:13:34;;;;;;;;;;;;;;;;;;5083135;28;19920;-89
2022/10/30 15:16:06;;;;;;;;;;;;;;;;;;5083518;28;20394;-86
2022/10/30 15:18:31;;;;;;;;;;;;;;;;;;5115234;27;19923;-86
2022/10/30 15:21:01;;;;;;;;;;;;;;;;;;5081907;28;19942;-86
2022/10/30 15:23:30;;;;;;;;;;;;;;;;;;5082764;28;19920;-86
2022/10/30 15:25:59;;;;;;;;;;;;;;;;;;5084527;28;20339;-86
2022/10/30 15:28:27;;;;;;;;;;;;;;;;;;5116512;27;19928;-87
2022/10/30 15:31:03;;;;;;;;;;;;;;;;;;5080318;28;19947;-87
2022/10/30 15:33:34;;;;;;;;;;;;;;;;;;5082575;28;19996;-86
2022/10/30 15:35:59;;;;;;;;;;;;;;;;;;5094140;28;19962;-87
2022/10/30 15:38:25;;;;;;;;;;;;;;;;;;5093326;28;19920;-88
2022/10/30 15:46:17;;;;;;;;;;;;;;;;;;5079959;27;19928;-87
2022/10/30 15:48:44;;;;;;;;;;;;;;;;;;5071218;28;19921;-88
2022/10/30 15:51:15;;;;;;;;;;;;;;;;;;5071174;28;19962;-84
2022/10/30 15:53:51;;;;;;;;;;;;;;;;;;5070327;28;20296;-86
2022/10/30 15:56:20;;;;;;;;;;;;;;;;;;5071003;28;20015;-84
2022/10/30 15:58:56;;;;;;;;;;;;;;;;;;5069985;28;19917;-87
2022/10/30 16:01:26;;;;;;;;;;;;;;;;;;5072374;28;20012;-87
2022/10/30 16:03:52;;;;;;;;;;;;;;;;;;5062331;28;19924;-86
2022/10/30 16:06:19;;;;;;;;;;;;;;;;;;5062214;28;20403;-87
2022/10/30 16:08:45;;;;;;;;;;;;;;;;;;5067295;28;19927;-87
2022/10/30 16:11:11;;;;;;;;;;;;;;;;;;5069781;28;19916;-85
2022/10/30 16:13:36;;;;;;;;;;;;;;;;;;5055089;28;19974;-89
2022/10/30 16:16:02;;;;;;;;;;;;;;;;;;5049315;28;19948;-88
2022/10/30 16:18:30;;;;;;;;;;;;;;;;;;5048624;28;19925;-85
2022/10/30 16:20:57;;;;;;;;;;;;;;;;;;5050145;28;20372;-87
2022/10/30 16:23:23;;;;;;;;;;;;;;;;;;5050670;28;19978;-89
2022/10/30 16:25:55;;;;;;;;;;;;;;;;;;5066844;28;19927;-87
2022/10/30 16:28:26;;;;;;;;;;;;;;;;;;5062610;28;20454;-89
2022/10/30 16:30:52;;;;;;;;;;;;;;;;;;5054717;28;19940;-88
2022/10/30 16:33:21;;;;;;;;;;;;;;;;;;5051022;28;19925;-87
2022/10/30 16:35:48;;;;;;;;;;;;;;;;;;5046422;28;20389;-88
2022/10/30 16:38:14;;;;;;;;;;;;;;;;;;5046670;28;19917;-90
2022/10/30 16:40:39;;;;;;;;;;;;;;;;;;5045189;28;20351;-87
2022/10/30 16:43:14;;;;;;;;;;;;;;;;;;5037235;28;19925;-87
2022/10/30 16:45:46;;;;;;;;;;;;;;;;;;5045830;28;19967;-87
2022/10/30 16:48:21;;;;;;;;;;;;;;;;;;5046399;28;19964;-87
2022/10/30 16:50:46;;;;;;;;;;;;;;;;;;5046210;28;19953;-89
2022/10/30 16:53:20;;;;;;;;;;;;;;;;;;5077969;28;20018;-87
2022/10/30 16:55:45;;;;;;;;;;;;;;;;;;5042882;28;19944;-88
2022/10/30 16:58:12;;;;;;;;;;;;;;;;;;5030853;28;20274;-86
2022/10/30 17:00:39;;;;;;;;;;;;;;;;;;5035296;28;19917;-88
2022/10/30 17:03:09;;;;;;;;;;;;;;;;;;5033552;28;20222;-86
2022/10/30 17:05:38;;;;;;;;;;;;;;;;;;5035009;28;19936;-84